Time;durP1;ratioP1;P1;durP2;ratioP2;P2;SDS_P1;SDS_P2;PMS_P1;PMS_P2;Temp;Humidity;BMP_temperature;BMP_pressure;BME280_temperature;BME280_humidity;BME280_pressure;Samples;Min_cycle;Max_cycle;Signal;HPM_P1;HPM_P2
2022/08/15 02:12:52;;;;;;;8.07;6.53;;;21.50;99.90;;;-144.05;54.33;125687.94;4955833;28;20036;-86
2022/08/15 10:19:56;;;;;;;3.90;2.45;;;27.30;99.90;;;-144.05;37.60;125687.94;5841764;23;20022;-87
2022/08/15 10:22:22;;;;;;;5.82;2.20;;;27.20;99.90;;;-144.05;37.86;125687.94;4921958;29;20040;-86
2022/08/15 10:25:22;;;;;;;5.97;3.13;;;27.10;99.90;;;-144.05;37.90;125687.94;4937615;29;20067;-84
2022/08/15 10:28:11;;;;;;;7.60;2.67;;;27.20;99.90;;;-144.05;37.83;125687.94;4921502;29;20032;-86
2022/08/15 10:31:05;;;;;;;6.25;2.53;;;27.30;99.90;;;-144.05;37.62;125687.94;4915174;29;20046;-85
2022/08/15 10:33:31;;;;;;;5.47;2.30;;;27.40;99.90;;;-144.05;37.55;125687.94;4920157;29;20044;-89
2022/08/15 10:36:15;;;;;;;5.47;2.53;;;27.50;99.90;;;-144.05;37.86;125687.94;4939760;29;20086;-83
2022/08/15 10:39:16;;;;;;;6.63;2.60;;;27.50;99.90;;;-144.05;37.23;125687.94;4939135;29;20117;-86
2022/08/15 10:42:20;;;;;;;10.10;2.92;;;27.80;99.90;;;-144.05;37.01;125687.94;4937596;29;20032;-86
2022/08/15 10:45:01;;;;;;;7.38;2.30;;;27.90;99.90;;;-144.05;36.02;125687.94;4875206;29;20043;-89
2022/08/15 10:48:06;;;;;;;6.43;2.67;;;28.10;99.90;;;-144.05;37.57;125687.94;4938814;29;20145;-85
2022/08/15 10:51:21;;;;;;;8.80;2.88;;;27.80;99.80;;;-144.05;37.38;125687.94;4920844;29;20027;-88
2022/08/15 10:54:42;;;;;;;7.30;2.85;;;27.80;99.90;;;-144.05;37.16;125687.94;4920464;29;20674;-85
2022/08/15 10:57:14;;;;;;;11.07;2.90;;;27.90;99.90;;;-144.05;37.14;125687.94;4921480;29;20138;-87
2022/08/15 10:59:48;;;;;;;6.90;2.60;;;28.00;99.80;;;-144.05;36.11;125687.94;4920741;29;20032;-85
2022/08/15 11:02:47;;;;;;;9.57;2.88;;;28.20;99.00;;;-144.05;35.85;125687.94;4920659;29;20055;-87
2022/08/15 11:05:20;;;;;;;7.13;3.17;;;28.30;98.90;;;-144.05;36.03;125687.94;4920999;29;20054;-85
2022/08/15 11:07:54;;;;;;;7.53;2.55;;;28.90;98.90;;;-144.05;34.76;125687.94;4937782;29;20525;-85
2022/08/15 11:10:32;;;;;;;5.57;2.65;;;29.60;97.50;;;-144.05;32.81;125687.94;4937641;29;20477;-85
2022/08/15 11:13:12;;;;;;;4.35;2.50;;;30.30;94.60;;;-144.05;32.83;125687.94;4922283;29;20096;-86
2022/08/15 11:15:56;;;;;;;5.70;2.50;;;30.60;94.10;;;-144.05;32.61;125687.94;4937457;29;20043;-84
2022/08/15 11:18:54;;;;;;;9.15;2.53;;;30.70;92.60;;;-144.05;31.92;125687.94;4937256;29;20035;-85
2022/08/15 11:21:48;;;;;;;4.53;2.38;;;31.00;91.40;;;-144.05;32.31;125687.94;4922049;29;20046;-87
2022/08/15 11:24:25;;;;;;;6.15;2.47;;;30.80;90.20;;;-144.05;32.96;125687.94;4938638;29;20042;-87
2022/08/15 11:27:17;;;;;;;7.80;2.78;;;30.40;91.30;;;-144.05;33.49;125687.94;4922393;29;20027;-89
2022/08/15 11:29:47;;;;;;;7.68;2.67;;;30.00;91.50;;;-144.05;34.24;125687.94;4923919;29;20104;-90
2022/08/15 11:32:34;;;;;;;5.30;2.80;;;29.60;92.10;;;-144.05;35.28;125687.94;4950500;29;20050;-88
2022/08/15 11:35:26;;;;;;;8.27;2.83;;;29.30;93.30;;;-144.05;34.77;125687.94;4922867;29;20284;-87
2022/08/15 11:37:59;;;;;;;5.97;3.00;;;29.10;93.20;;;-144.05;35.40;125687.94;4930852;29;20039;-87
2022/08/15 11:40:40;;;;;;;4.35;2.47;;;28.70;93.70;;;-144.05;35.48;125687.94;4922538;29;20023;-88
2022/08/15 11:43:15;;;;;;;9.60;2.95;;;28.60;94.40;;;-144.05;35.90;125687.94;4937629;29;20182;-90
2022/08/15 11:45:50;;;;;;;3.97;2.23;;;28.50;94.30;;;-144.05;35.49;125687.94;4922102;29;20393;-87
2022/08/15 11:48:30;;;;;;;5.05;2.60;;;28.40;93.50;;;-144.05;36.71;125687.94;4922189;29;20111;-87
2022/08/15 11:51:21;;;;;;;7.65;2.70;;;28.10;94.80;;;-144.05;36.06;125687.94;4939380;29;20036;-89
2022/08/15 11:54:07;;;;;;;6.88;2.75;;;28.20;95.40;;;-144.05;36.89;125687.94;4940332;29;20039;-88
2022/08/15 11:57:07;;;;;;;7.03;2.42;;;28.10;96.20;;;-144.05;36.89;125687.94;4922629;29;20099;-88
2022/08/15 12:00:04;;;;;;;12.00;2.97;;;28.00;96.50;;;-144.05;37.63;125687.94;4927676;29;20038;-89
2022/08/15 12:02:32;;;;;;;8.02;3.00;;;27.80;97.10;;;-144.05;37.03;125687.94;4922121;29;20082;-87
2022/08/15 12:05:25;;;;;;;7.35;2.70;;;27.80;97.30;;;-144.05;37.29;125687.94;4923328;29;20095;-87
2022/08/15 12:07:58;;;;;;;5.63;3.10;;;27.80;97.20;;;-144.05;37.13;125687.94;4937797;29;20032;-89
2022/08/15 12:10:35;;;;;;;5.47;3.05;;;27.90;97.00;;;-144.05;37.22;125687.94;4922026;29;20081;-89
2022/08/15 12:13:02;;;;;;;9.30;2.88;;;27.90;96.80;;;-144.05;38.07;125687.94;4924042;29;20107;-88
2022/08/15 12:15:31;;;;;;;3.78;2.55;;;27.70;96.80;;;-144.05;38.31;125687.94;4939687;29;20087;-89
2022/08/15 12:18:32;;;;;;;6.55;3.38;;;27.70;98.20;;;-144.05;37.48;125687.94;4922393;29;20032;-88
2022/08/15 12:21:02;;;;;;;4.57;2.85;;;27.70;98.00;;;-144.05;38.53;125687.94;4915611;29;20119;-88
2022/08/15 12:23:55;;;;;;;7.43;2.90;;;27.40;98.70;;;-144.05;38.79;125687.94;4941931;29;20035;-87
2022/08/15 12:26:28;;;;;;;7.97;3.65;;;27.50;99.50;;;-144.05;38.33;125687.94;4926074;29;20051;-86
2022/08/15 12:28:57;;;;;;;5.38;2.80;;;27.40;99.40;;;-144.05;39.07;125687.94;4926260;29;20035;-89
2022/08/15 12:31:36;;;;;;;4.50;3.00;;;27.10;99.70;;;-144.05;39.73;125687.94;4942116;29;20059;-88
2022/08/15 12:34:19;;;;;;;6.95;3.05;;;26.90;99.90;;;-144.05;40.31;125687.94;4941938;29;20121;-87
2022/08/15 12:36:45;;;;;;;7.10;3.03;;;26.70;99.90;;;-144.05;39.86;125687.94;4943757;29;20026;-90
2022/08/15 12:39:16;;;;;;;5.85;3.13;;;26.60;99.90;;;-144.05;39.87;125687.94;4926807;29;20035;-89
2022/08/15 12:41:51;;;;;;;6.93;3.05;;;26.40;99.90;;;-144.05;40.56;125687.94;4925810;29;20082;-90
2022/08/15 12:44:28;;;;;;;7.45;3.05;;;26.20;99.90;;;-144.05;40.87;125687.94;4926967;29;20039;-90
2022/08/15 12:46:57;;;;;;;4.72;3.00;;;26.10;99.90;;;-144.05;41.19;125687.94;4926502;29;20042;-87
2022/08/15 12:49:23;;;;;;;4.32;3.13;;;26.00;99.90;;;-144.05;41.74;125687.94;4926420;29;20054;-91
2022/08/15 12:51:50;;;;;;;7.07;3.25;;;25.80;99.90;;;-144.05;42.18;125687.94;4942201;29;20023;-90
2022/08/15 12:54:16;;;;;;;8.20;3.22;;;25.70;99.90;;;-144.05;42.58;125687.94;4926924;29;20027;-90
2022/08/15 12:56:44;;;;;;;8.65;3.50;;;25.60;99.90;;;-144.05;41.67;125687.94;4941645;29;20023;-88
2022/08/15 12:59:13;;;;;;;6.18;2.55;;;25.70;99.90;;;-144.05;41.84;125687.94;4941902;29;20032;-91
2022/08/15 13:01:43;;;;;;;5.88;3.08;;;25.80;99.90;;;-144.05;42.55;125687.94;4926127;29;20485;-87
2022/08/15 13:04:14;;;;;;;5.20;3.25;;;25.70;99.90;;;-144.05;42.55;125687.94;4944582;29;20110;-87
2022/08/15 13:06:55;;;;;;;14.20;3.75;;;25.70;99.90;;;-144.05;42.65;125687.94;4949353;29;20051;-90
2022/08/15 13:09:25;;;;;;;7.55;3.50;;;25.70;99.90;;;-144.05;42.47;125687.94;4948660;29;20032;-86
2022/08/15 13:11:52;;;;;;;7.07;3.08;;;25.70;99.90;;;-144.05;42.29;125687.94;4943333;29;20144;-88
2022/08/15 13:14:20;;;;;;;5.20;3.20;;;25.70;99.90;;;-144.05;42.00;125687.94;4939329;29;20096;-86
2022/08/15 13:16:48;;;;;;;6.30;3.17;;;25.90;99.90;;;-144.05;41.59;125687.94;4907074;29;20034;-89
2022/08/15 13:19:29;;;;;;;5.88;2.97;;;26.10;99.90;;;-144.05;41.25;125687.94;4913409;29;20028;-87
2022/08/15 13:24:42;;;;;;;5.55;3.30;;;26.50;99.90;;;-144.05;41.08;125687.94;4923671;29;20052;-88
2022/08/15 13:27:09;;;;;;;5.40;3.60;;;26.60;99.90;;;-144.05;40.97;125687.94;4906997;29;20131;-87
2022/08/15 13:29:39;;;;;;;6.43;3.10;;;26.70;99.90;;;-144.05;40.29;125687.94;4907105;29;20440;-87
2022/08/15 13:32:06;;;;;;;7.90;3.60;;;26.90;99.90;;;-144.05;40.19;125687.94;4905684;29;20459;-87
2022/08/15 13:34:34;;;;;;;9.98;4.03;;;27.10;99.90;;;-144.05;39.89;125687.94;4906002;29;20063;-89
2022/08/15 13:37:00;;;;;;;7.22;3.13;;;27.10;99.90;;;-144.05;39.84;125687.94;4925850;29;20024;-88
2022/08/15 13:39:38;;;;;;;5.68;2.92;;;27.10;99.90;;;-144.05;39.82;125687.94;4907280;29;20040;-89
2022/08/15 13:42:05;;;;;;;4.55;3.00;;;27.10;99.90;;;-144.05;40.11;125687.94;4921263;29;20115;-89
2022/08/15 13:44:33;;;;;;;6.22;3.05;;;27.00;99.90;;;-144.05;40.03;125687.94;4922461;29;20044;-87
2022/08/15 13:47:06;;;;;;;5.55;3.28;;;26.90;99.90;;;-144.05;40.53;125687.94;4905439;29;20043;-90
2022/08/15 13:49:35;;;;;;;13.43;3.33;;;27.00;99.90;;;-144.05;40.21;125687.94;4921607;29;20032;-87
2022/08/15 13:52:02;;;;;;;6.97;3.30;;;27.00;99.90;;;-144.05;39.95;125687.94;4905045;29;20020;-87
2022/08/15 13:54:28;;;;;;;7.05;3.40;;;27.10;99.90;;;-144.05;40.38;125687.94;4922282;29;20534;-88
2022/08/15 13:56:54;;;;;;;8.50;3.22;;;27.10;99.90;;;-144.05;40.29;125687.94;4906027;29;20088;-88
2022/08/15 13:59:20;;;;;;;7.28;3.50;;;27.10;99.90;;;-144.05;39.75;125687.94;4921707;29;20467;-86
2022/08/15 14:01:51;;;;;;;5.82;3.53;;;27.00;99.90;;;-144.05;40.02;125687.94;4920796;29;20028;-90
2022/08/15 14:04:37;;;;;;;6.45;3.67;;;27.00;99.90;;;-144.05;40.57;125687.94;4905651;29;20028;-90
2022/08/15 14:07:10;;;;;;;;;;;26.80;99.90;;;-144.05;40.94;125687.94;4921322;29;20063;-89
2022/08/15 14:09:36;;;;;;;4.88;3.70;;;26.60;99.90;;;-144.05;41.74;125687.94;4905635;29;19975;-90
2022/08/15 14:12:05;;;;;;;6.60;3.45;;;26.30;99.90;;;-144.05;42.24;125687.94;4906135;29;20040;-87
2022/08/15 14:14:32;;;;;;;3.40;3.10;;;26.00;99.90;;;-144.05;42.41;125687.94;4938229;29;20423;-90
2022/08/15 14:17:06;;;;;;;6.07;3.35;;;25.70;99.90;;;-144.05;42.33;125687.94;4923728;29;20123;-88
2022/08/15 14:19:32;;;;;;;7.38;3.17;;;25.60;99.90;;;-144.05;42.09;125687.94;4924317;29;20046;-90
2022/08/15 14:22:01;;;;;;;6.00;3.13;;;25.70;99.90;;;-144.05;42.08;125687.94;4924710;29;20067;-88
2022/08/15 14:24:28;;;;;;;7.93;3.65;;;25.90;99.90;;;-144.05;42.01;125687.94;4940171;29;20039;-88
2022/08/15 14:26:54;;;;;;;6.50;3.08;;;26.00;99.90;;;-144.05;41.72;125687.94;4924609;29;20027;-89
2022/08/15 14:29:39;;;;;;;7.88;3.50;;;26.00;99.90;;;-144.05;41.26;125687.94;4932053;29;20031;-89
2022/08/15 14:32:10;;;;;;;6.63;3.38;;;26.00;99.90;;;-144.05;41.43;125687.94;4933405;29;20035;-88
2022/08/15 14:34:37;;;;;;;8.50;3.20;;;26.10;99.90;;;-144.05;41.67;125687.94;4934856;29;20043;-88
2022/08/15 14:37:16;;;;;;;5.72;3.60;;;26.00;99.90;;;-144.05;41.55;125687.94;4926531;29;20055;-89
2022/08/15 14:39:45;;;;;;;8.48;3.65;;;25.90;99.90;;;-144.05;41.82;125687.94;4923234;29;20369;-90
2022/08/15 14:42:18;;;;;;;5.40;3.47;;;25.90;99.90;;;-144.05;41.57;125687.94;4923469;29;20425;-89
2022/08/15 14:44:45;;;;;;;8.35;3.22;;;25.90;99.90;;;-144.05;41.68;125687.94;4923164;29;20425;-88
2022/08/15 14:47:15;;;;;;;6.03;3.28;;;26.00;99.90;;;-144.05;41.61;125687.94;4923596;29;20040;-87
2022/08/15 14:49:47;;;;;;;6.68;3.40;;;25.90;99.90;;;-144.05;41.82;125687.94;4921928;29;20119;-90
2022/08/15 14:52:15;;;;;;;7.15;3.20;;;25.80;99.90;;;-144.05;41.82;125687.94;4922544;29;20039;-90
2022/08/15 14:54:46;;;;;;;8.40;3.80;;;25.90;99.90;;;-144.05;41.75;125687.94;4922513;29;20027;-92
2022/08/15 14:57:19;;;;;;;5.85;3.28;;;25.90;99.90;;;-144.05;41.70;125687.94;4922159;29;20145;-88
2022/08/15 14:59:47;;;;;;;5.45;3.13;;;26.00;99.90;;;-144.05;41.13;125687.94;4921791;29;20056;-90
2022/08/15 15:02:19;;;;;;;6.88;3.35;;;26.50;99.90;;;-144.05;40.07;125687.94;4937392;29;20035;-88
2022/08/15 15:04:46;;;;;;;6.55;2.92;;;26.90;99.90;;;-144.05;39.23;125687.94;4920483;29;20054;-89
2022/08/15 15:07:14;;;;;;;8.10;3.15;;;27.00;99.90;;;-144.05;38.62;125687.94;4936646;29;20047;-88
2022/08/15 15:09:40;;;;;;;5.07;3.20;;;27.30;99.90;;;-144.05;37.93;125687.94;4929505;29;20036;-88
2022/08/15 15:12:07;;;;;;;5.13;2.80;;;27.60;99.90;;;-144.05;37.89;125687.94;4921655;29;20087;-89
2022/08/15 15:14:33;;;;;;;4.55;3.17;;;27.70;99.90;;;-144.05;37.87;125687.94;4923651;29;20036;-87
2022/08/15 15:16:59;;;;;;;5.18;3.55;;;27.70;99.90;;;-144.05;37.99;125687.94;4906097;29;20032;-87
2022/08/15 15:19:30;;;;;;;4.85;2.63;;;27.70;99.90;;;-144.05;38.21;125687.94;4920901;29;20525;-87
2022/08/15 15:21:57;;;;;;;6.30;2.88;;;27.50;99.90;;;-144.05;37.97;125687.94;4919754;29;20119;-90
2022/08/15 15:24:24;;;;;;;4.15;2.72;;;27.30;99.90;;;-144.05;38.66;125687.94;4905045;29;20091;-88
2022/08/15 15:26:49;;;;;;;6.35;2.75;;;27.50;99.90;;;-144.05;37.88;125687.94;4921784;29;20044;-89
2022/08/15 15:29:15;;;;;;;8.55;3.17;;;27.70;99.90;;;-144.05;37.49;125687.94;4905361;29;20048;-89
2022/08/15 15:31:42;;;;;;;7.45;3.38;;;27.60;99.90;;;-144.05;37.76;125687.94;4923173;29;20032;-88
2022/08/15 15:34:11;;;;;;;4.70;2.90;;;27.30;99.90;;;-144.05;38.32;125687.94;4907016;29;20103;-86
2022/08/15 15:36:42;;;;;;;6.10;2.75;;;26.90;99.90;;;-144.05;38.70;125687.94;4921644;29;20036;-89
2022/08/15 15:39:19;;;;;;;6.97;3.00;;;26.70;99.90;;;-144.05;38.89;125687.94;4905873;29;20473;-88
2022/08/15 15:41:48;;;;;;;4.90;2.72;;;26.50;99.90;;;-144.05;39.06;125687.94;4905869;29;20116;-89
2022/08/15 15:44:25;;;;;;;4.20;2.80;;;26.20;99.90;;;-144.05;39.62;125687.94;4922142;29;20036;-90
2022/08/15 15:47:11;;;;;;;7.78;2.80;;;26.20;99.90;;;-144.05;39.51;125687.94;4921704;29;20158;-88
2022/08/15 15:49:46;;;;;;;6.07;3.10;;;26.20;99.90;;;-144.05;39.20;125687.94;4904536;29;20039;-89
2022/08/15 15:52:28;;;;;;;3.83;2.50;;;26.10;99.90;;;-144.05;39.68;125687.94;4919010;29;20478;-87
2022/08/15 15:54:54;;;;;;;6.28;3.20;;;26.10;99.90;;;-144.05;39.56;125687.94;4920793;29;20446;-87
2022/08/15 15:57:27;;;;;;;5.35;2.92;;;26.00;99.90;;;-144.05;39.34;125687.94;4903550;29;20103;-88
2022/08/15 15:59:54;;;;;;;6.38;3.10;;;26.00;99.90;;;-144.05;39.06;125687.94;4907240;29;20036;-88
2022/08/15 16:02:26;;;;;;;8.13;2.65;;;25.90;99.90;;;-144.05;39.58;125687.94;4907146;29;20044;-89
2022/08/15 16:04:53;;;;;;;4.47;2.67;;;25.80;99.90;;;-144.05;39.63;125687.94;4907158;29;20067;-87
2022/08/15 16:07:19;;;;;;;6.47;2.90;;;25.80;99.90;;;-144.05;39.48;125687.94;4907410;29;20115;-89
2022/08/15 16:09:45;;;;;;;2.78;2.45;;;25.90;99.90;;;-144.05;39.17;125687.94;4906878;29;20028;-88
2022/08/15 16:12:23;;;;;;;8.77;2.95;;;25.90;99.90;;;-144.05;39.78;125687.94;4923041;29;20599;-87
2022/08/15 16:15:25;;;;;;;7.15;3.22;;;25.80;99.90;;;-144.05;39.78;125687.94;4925696;29;20035;-89
2022/08/15 16:18:08;;;;;;;4.75;3.03;;;25.90;99.90;;;-144.05;39.98;125687.94;4925875;29;20031;-87
2022/08/15 16:20:53;;;;;;;4.47;2.80;;;25.90;99.90;;;-144.05;39.32;125687.94;4961894;23;20051;-83
2022/08/15 16:23:46;;;;;;;5.03;3.08;;;25.90;99.90;;;-144.05;40.69;125687.94;4970366;29;20058;-84
2022/08/15 16:27:01;;;;;;;6.53;3.22;;;25.50;99.90;;;-144.05;40.70;125687.94;4959161;29;20042;-84
2022/08/15 16:29:42;;;;;;;6.55;3.13;;;25.30;99.90;;;-144.05;40.55;125687.94;4933788;29;20043;-85
2022/08/15 16:32:34;;;;;;;5.28;3.50;;;25.20;99.90;;;-144.05;41.05;125687.94;4945970;29;20133;-85
2022/08/15 16:35:19;;;;;;;4.05;2.88;;;25.10;99.90;;;-144.05;41.22;125687.94;4946749;29;20030;-86
2022/08/15 16:37:58;;;;;;;6.68;2.85;;;25.00;99.90;;;-144.05;41.49;125687.94;4950144;29;20028;-85
2022/08/15 16:40:43;;;;;;;6.00;2.88;;;24.90;99.90;;;-144.05;41.39;125687.94;4946565;29;20471;-85
2022/08/15 16:43:27;;;;;;;7.68;3.20;;;24.90;99.90;;;-144.05;41.31;125687.94;4945751;29;20130;-83
2022/08/15 16:46:36;;;;;;;4.78;3.10;;;24.90;99.90;;;-144.05;41.50;125687.94;4947496;29;20034;-83
2022/08/15 16:49:32;;;;;;;3.65;2.75;;;24.90;99.90;;;-144.05;41.56;125687.94;4946401;29;20099;-84
2022/08/15 16:52:20;;;;;;;6.93;3.00;;;24.90;99.90;;;-144.05;41.74;125687.94;4947871;29;20066;-85
2022/08/15 16:55:24;;;;;;;6.97;3.08;;;24.70;99.90;;;-144.05;42.05;125687.94;4949497;29;20496;-84
2022/08/15 16:58:19;;;;;;;6.47;3.35;;;24.70;99.90;;;-144.05;41.92;125687.94;4948589;29;20103;-84
2022/08/15 17:01:26;;;;;;;4.97;3.05;;;24.70;99.90;;;-144.05;41.96;125687.94;4949976;29;20027;-85
2022/08/15 17:04:12;;;;;;;5.07;2.95;;;24.60;99.90;;;-144.05;42.17;125687.94;4952623;29;20035;-85
2022/08/15 17:07:09;;;;;;;4.80;3.10;;;24.60;99.90;;;-144.05;42.07;125687.94;4948710;29;20052;-84
2022/08/15 17:10:28;;;;;;;6.10;3.30;;;24.70;99.90;;;-144.05;42.37;125687.94;4942615;29;20031;-84
2022/08/15 17:13:06;;;;;;;6.90;3.00;;;24.70;99.90;;;-144.05;41.94;125687.94;4960301;29;20031;-84
2022/08/15 17:16:24;;;;;;;5.22;3.40;;;24.80;99.90;;;-144.05;42.45;125687.94;4943805;29;20619;-86
2022/08/15 17:19:58;;;;;;;5.45;3.20;;;24.80;99.90;;;-144.05;42.19;125687.94;4944545;29;20035;-84
2022/08/15 17:22:59;;;;;;;5.22;3.03;;;24.80;99.90;;;-144.05;41.79;125687.94;4946003;29;20061;-84
2022/08/15 17:26:02;;;;;;;5.95;2.88;;;24.80;99.90;;;-144.05;42.09;125687.94;4944574;29;20098;-84
2022/08/15 17:29:12;;;;;;;3.90;3.00;;;24.70;99.90;;;-144.05;41.99;125687.94;4942743;29;20501;-85
2022/08/15 17:31:41;;;;;;;7.22;3.10;;;24.80;99.90;;;-144.05;42.13;125687.94;4940894;29;20035;-83
2022/08/15 17:34:22;;;;;;;4.90;3.17;;;24.80;99.90;;;-144.05;41.97;125687.94;4941363;29;20508;-82
2022/08/15 17:36:50;;;;;;;5.63;2.85;;;24.70;99.90;;;-144.05;41.91;125687.94;4941606;29;20032;-84
2022/08/15 17:40:04;;;;;;;4.90;3.17;;;24.70;99.90;;;-144.05;42.21;125687.94;4941719;29;20038;-84
2022/08/15 17:42:39;;;;;;;4.15;2.85;;;24.60;99.90;;;-144.05;42.36;125687.94;4941641;29;20059;-84
2022/08/15 17:45:24;;;;;;;5.93;3.05;;;24.50;99.90;;;-144.05;42.61;125687.94;4940774;29;20496;-85
2022/08/15 17:48:27;;;;;;;5.50;3.10;;;24.40;99.90;;;-144.05;42.96;125687.94;4951770;29;20027;-84
2022/08/15 17:51:24;;;;;;;5.32;3.38;;;24.40;99.90;;;-144.05;43.17;125687.94;4941677;29;20039;-84
2022/08/15 17:54:29;;;;;;;6.82;3.17;;;24.20;99.90;;;-144.05;43.33;125687.94;4954009;29;20031;-83
2022/08/15 17:57:19;;;;;;;4.03;2.85;;;24.20;99.90;;;-144.05;43.36;125687.94;4949100;29;20031;-81
2022/08/15 17:59:56;;;;;;;4.78;3.03;;;24.10;99.90;;;-144.05;43.39;125687.94;4958384;29;20053;-85
2022/08/15 18:02:24;;;;;;;5.15;2.88;;;24.10;99.90;;;-144.05;43.42;125687.94;4941120;29;20035;-85
2022/08/15 18:04:51;;;;;;;3.35;2.75;;;24.00;99.90;;;-144.05;43.65;125687.94;4940761;29;20178;-83
2022/08/15 18:07:27;;;;;;;4.97;3.40;;;24.00;99.90;;;-144.05;43.70;125687.94;4940625;29;20031;-85
2022/08/15 18:10:00;;;;;;;6.68;3.08;;;24.00;99.90;;;-144.05;43.86;125687.94;4940557;29;20497;-85
2022/08/15 18:12:26;;;;;;;3.17;2.35;;;23.90;99.90;;;-144.05;43.93;125687.94;4940526;29;20031;-84
2022/08/15 18:14:52;;;;;;;4.50;3.13;;;23.80;99.90;;;-144.05;44.27;125687.94;4941528;29;20069;-86
2022/08/15 18:17:31;;;;;;;5.95;3.30;;;23.80;99.90;;;-144.05;44.48;125687.94;4942528;29;20444;-85
2022/08/15 18:20:20;;;;;;;5.57;3.13;;;23.70;99.90;;;-144.05;44.68;125687.94;4942978;29;20043;-81
2022/08/15 18:23:14;;;;;;;4.07;2.92;;;23.60;99.90;;;-144.05;44.96;125687.94;4947401;29;20038;-83
2022/08/15 18:25:40;;;;;;;4.57;2.95;;;23.50;99.90;;;-144.05;45.11;125687.94;4944411;29;20564;-84
2022/08/15 18:28:35;;;;;;;4.50;2.92;;;23.50;99.90;;;-144.05;45.11;125687.94;4945400;29;20123;-84
2022/08/15 18:31:23;;;;;;;4.50;3.28;;;23.40;99.90;;;-144.05;45.21;125687.94;4944693;29;20031;-83
2022/08/15 18:33:50;;;;;;;5.30;3.13;;;23.30;99.90;;;-144.05;45.41;125687.94;4953917;28;20015;-83
2022/08/15 18:36:50;;;;;;;5.35;3.33;;;23.30;99.90;;;-144.05;45.54;125687.94;4962265;28;20054;-84
2022/08/15 18:42:45;;;;;;;3.20;2.90;;;23.10;99.90;;;-144.05;45.93;125687.94;4960388;29;20085;-83
2022/08/15 18:45:42;;;;;;;4.60;3.47;;;23.10;99.90;;;-144.05;46.12;125687.94;4948631;29;20031;-85
2022/08/15 18:48:24;;;;;;;4.70;3.17;;;22.90;99.90;;;-144.05;46.74;125687.94;4946972;29;20051;-85
2022/08/15 18:51:07;;;;;;;5.18;3.28;;;22.90;99.90;;;-144.05;46.90;125687.94;4944800;29;20027;-83
2022/08/15 18:54:10;;;;;;;5.00;3.30;;;22.80;99.90;;;-144.05;47.29;125687.94;4945483;29;20054;-85
2022/08/15 18:56:53;;;;;;;4.13;3.00;;;22.70;99.90;;;-144.05;47.57;125687.94;4946938;29;20523;-82
2022/08/15 18:59:43;;;;;;;4.55;3.22;;;22.50;99.90;;;-144.05;47.82;125687.94;4946430;29;20032;-85
2022/08/15 19:02:45;;;;;;;6.72;3.72;;;22.40;99.90;;;-144.05;47.91;125687.94;4947631;29;20026;-83
2022/08/15 19:05:47;;;;;;;8.55;4.00;;;22.40;99.90;;;-144.05;48.05;125687.94;4948452;29;20067;-85
2022/08/15 19:08:27;;;;;;;8.15;4.38;;;22.40;99.90;;;-144.05;48.15;125687.94;4950674;29;20043;-84
2022/08/15 19:10:55;;;;;;;5.95;4.80;;;22.50;99.90;;;-144.05;48.08;125687.94;4958491;29;20067;-81
2022/08/15 19:13:47;;;;;;;9.25;4.90;;;22.40;99.90;;;-144.05;48.79;125687.94;4950434;29;20473;-83
2022/08/15 19:16:28;;;;;;;9.57;4.60;;;22.50;99.90;;;-144.05;48.90;125687.94;4960392;29;20035;-82
2022/08/15 19:19:25;;;;;;;7.50;4.43;;;22.40;99.90;;;-144.05;48.96;125687.94;4943377;29;20043;-84
2022/08/15 19:21:53;;;;;;;6.18;3.83;;;22.40;99.90;;;-144.05;48.83;125687.94;4944020;29;20031;-82
2022/08/15 19:24:25;;;;;;;6.70;4.30;;;22.40;99.90;;;-144.05;49.02;125687.94;4942443;29;20038;-84
2022/08/15 19:27:30;;;;;;;5.10;3.60;;;22.30;99.90;;;-144.05;49.34;125687.94;4941597;29;20381;-83
2022/08/15 19:30:23;;;;;;;6.63;4.35;;;22.30;99.90;;;-144.05;49.54;125687.94;4941263;29;20027;-82
2022/08/15 19:33:43;;;;;;;8.40;3.85;;;22.30;99.90;;;-144.05;49.78;125687.94;4939966;29;20500;-83
2022/08/15 19:37:06;;;;;;;8.15;4.55;;;22.20;99.90;;;-144.05;49.72;125687.94;4957361;29;20031;-82
2022/08/15 19:40:19;;;;;;;6.35;3.90;;;22.20;99.90;;;-144.05;49.86;125687.94;4956524;29;20031;-82
2022/08/15 19:43:18;;;;;;;6.60;4.38;;;22.10;99.90;;;-144.05;50.12;125687.94;4939797;29;20131;-83
2022/08/15 19:46:14;;;;;;;6.90;4.35;;;22.10;99.90;;;-144.05;50.51;125687.94;4939932;29;20168;-84
2022/08/15 19:51:19;;;;;;;6.85;3.95;;;22.10;99.90;;;-144.05;50.53;125687.94;4956501;29;20489;-83
2022/08/15 19:52:20;;;;;;;7.07;3.78;;;22.00;99.90;;;-144.05;50.62;125687.94;4957127;29;20039;-84
2022/08/15 19:55:45;;;;;;;7.15;4.70;;;22.00;99.90;;;-144.05;50.88;125687.94;4939617;29;20122;-83
2022/08/15 19:58:25;;;;;;;7.45;3.83;;;22.00;99.90;;;-144.05;50.80;125687.94;4928037;29;20093;-83
2022/08/15 20:01:01;;;;;;;5.95;3.95;;;21.90;99.90;;;-144.05;50.75;125687.94;4942009;29;20023;-84
2022/08/15 20:03:56;;;;;;;6.28;4.18;;;21.90;99.90;;;-144.05;50.76;125687.94;4959291;29;20034;-82
2022/08/15 20:07:23;;;;;;;7.53;3.92;;;21.90;99.90;;;-144.05;50.75;125687.94;4941364;29;20031;-84
2022/08/15 20:11:04;;;;;;;5.07;3.58;;;21.90;99.90;;;-144.05;50.73;125687.94;4954949;29;20031;-83
2022/08/15 20:14:46;;;;;;;5.88;3.65;;;22.00;99.90;;;-144.05;50.38;125687.94;4938704;29;20042;-84
2022/08/15 20:18:02;;;;;;;5.15;3.38;;;22.00;99.90;;;-144.05;50.22;125687.94;4927472;29;20039;-85
2022/08/15 20:21:03;;;;;;;7.40;4.35;;;22.00;99.90;;;-144.05;50.17;125687.94;4941839;29;20209;-84
2022/08/15 20:24:10;;;;;;;5.43;3.60;;;22.00;99.90;;;-144.05;49.98;125687.94;4937895;29;20066;-84
2022/08/15 20:27:09;;;;;;;4.20;3.50;;;22.00;99.90;;;-144.05;49.96;125687.94;4949043;29;20447;-83
2022/08/15 20:29:53;;;;;;;7.38;3.67;;;22.00;99.90;;;-144.05;49.86;125687.94;4951258;29;20469;-83
2022/08/15 20:32:41;;;;;;;7.07;3.85;;;22.00;99.90;;;-144.05;50.00;125687.94;4943064;29;20023;-83
2022/08/15 20:35:22;;;;;;;9.88;3.55;;;22.00;99.90;;;-144.05;50.13;125687.94;4939608;29;20373;-82
2022/08/15 20:38:21;;;;;;;7.80;3.72;;;22.00;99.90;;;-144.05;50.01;125687.94;4939929;29;20481;-81
2022/08/15 20:41:16;;;;;;;8.82;3.67;;;22.00;99.90;;;-144.05;49.99;125687.94;4953894;29;20070;-89
2022/08/15 20:44:19;;;;;;;6.07;4.13;;;22.00;99.90;;;-144.05;49.95;125687.94;4939129;29;20122;-88
2022/08/15 20:47:06;;;;;;;7.15;3.53;;;22.00;99.90;;;-144.05;49.78;125687.94;4942293;29;20446;-83
2022/08/15 20:49:36;;;;;;;6.97;3.80;;;22.00;99.90;;;-144.05;49.73;125687.94;4941881;29;20544;-84
2022/08/15 20:52:10;;;;;;;4.60;3.45;;;22.00;99.90;;;-144.05;49.68;125687.94;4957419;29;20058;-85
2022/08/15 20:54:42;;;;;;;4.07;3.65;;;22.00;99.90;;;-144.05;49.78;125687.94;4941636;29;20111;-86
2022/08/15 20:57:21;;;;;;;7.40;3.70;;;22.00;99.90;;;-144.05;49.73;125687.94;4943795;29;20039;-87
2022/08/15 20:59:50;;;;;;;4.82;3.20;;;22.00;99.90;;;-144.05;49.30;125687.94;4959359;29;20038;-86
2022/08/15 21:02:32;;;;;;;4.65;2.78;;;22.00;99.90;;;-144.05;48.96;125687.94;4941818;29;20023;-82
2022/08/15 21:05:13;;;;;;;7.18;3.25;;;22.00;99.90;;;-144.05;48.73;125687.94;4962066;29;20130;-81
2022/08/15 21:07:48;;;;;;;3.65;3.10;;;22.00;99.90;;;-144.05;48.74;125687.94;4959440;29;20106;-86
2022/08/15 21:10:27;;;;;;;6.35;3.17;;;22.00;99.90;;;-144.05;48.59;125687.94;4960573;29;20107;-84
2022/08/15 21:13:25;;;;;;;5.68;3.13;;;22.00;99.90;;;-144.05;48.29;125687.94;4955541;29;20474;-87
2022/08/15 21:16:46;;;;;;;5.35;3.33;;;22.00;99.90;;;-144.05;48.48;125687.94;4924864;29;20039;-86
2022/08/15 21:19:53;;;;;;;5.53;3.40;;;22.00;99.90;;;-144.05;48.61;125687.94;4945164;29;20089;-81
2022/08/15 21:22:51;;;;;;;4.55;2.92;;;22.00;99.90;;;-144.05;48.51;125687.94;4920324;29;20043;-85
2022/08/15 21:25:32;;;;;;;5.80;3.50;;;22.00;99.90;;;-144.05;48.67;125687.94;4922176;29;20043;-83